createdAt,value
2022-12-11T00:00:48.419Z,16.90
2022-12-11T00:03:16.627Z,16.65
2022-12-11T00:05:44.407Z,17.58
2022-12-11T00:08:11.947Z,16.67
2022-12-11T00:10:38.772Z,17.55
2022-12-11T00:13:06.532Z,19.50
2022-12-11T00:15:33.812Z,18.50
2022-12-11T00:18:00.404Z,18.48
2022-12-11T00:20:27.115Z,19.33
2022-12-11T00:22:53.640Z,18.55
2022-12-11T00:25:20.228Z,20.83
2022-12-11T00:27:47.298Z,17.67
2022-12-11T00:30:14.502Z,17.95
2022-12-11T00:32:41.079Z,18.23
2022-12-11T00:35:08.462Z,19.30
2022-12-11T00:37:35.755Z,17.13
2022-12-11T00:40:03.241Z,21.60
2022-12-11T00:42:29.770Z,19.15
2022-12-11T00:44:56.412Z,18.40
2022-12-11T00:47:22.976Z,18.20
2022-12-11T00:49:50.105Z,19.30
2022-12-11T00:52:17.854Z,17.88
2022-12-11T00:54:45.017Z,19.95
2022-12-11T00:57:11.594Z,19.45
2022-12-11T00:59:38.708Z,17.90
2022-12-11T01:02:05.365Z,17.88
2022-12-11T01:04:35.211Z,17.40
2022-12-11T01:07:01.738Z,17.25
2022-12-11T01:09:48.565Z,17.95
2022-12-11T01:12:15.118Z,17.33
2022-12-11T01:14:41.677Z,19.13
2022-12-11T01:17:08.202Z,19.85
2022-12-11T01:19:34.726Z,22.33
2022-12-11T01:22:01.357Z,21.60
2022-12-11T01:24:28.505Z,20.58
2022-12-11T01:26:56.961Z,20.25
2022-12-11T01:29:23.480Z,21.15
2022-12-11T01:31:50.010Z,20.67
2022-12-11T01:34:16.539Z,21.00
2022-12-11T01:36:43.686Z,19.63
2022-12-11T01:39:10.270Z,21.35
2022-12-11T01:41:36.767Z,18.85
2022-12-11T01:44:29.246Z,17.63
2022-12-11T01:46:56.589Z,19.75
2022-12-11T01:49:26.104Z,17.42
2022-12-11T01:51:58.020Z,19.95
2022-12-11T01:54:27.513Z,16.48
2022-12-11T01:56:58.419Z,17.48
2022-12-11T01:59:29.124Z,19.80
2022-12-11T02:02:10.033Z,22.35
2022-12-11T02:04:39.007Z,35.65
2022-12-11T02:07:06.230Z,34.22
2022-12-11T02:09:35.314Z,35.67
2022-12-11T02:12:03.739Z,36.53
2022-12-11T02:14:43.500Z,46.90
2022-12-11T02:17:19.550Z,26.58
2022-12-11T02:19:48.943Z,28.13
2022-12-11T02:22:29.108Z,30.27
2022-12-11T02:25:23.666Z,37.17
2022-12-11T02:28:05.574Z,32.92
2022-12-11T02:30:37.070Z,30.73
2022-12-11T02:33:05.283Z,21.65
2022-12-11T02:35:39.812Z,18.75
2022-12-11T02:38:11.672Z,19.25
2022-12-11T02:40:40.860Z,19.05
2022-12-11T02:43:11.703Z,20.42
2022-12-11T02:45:42.228Z,21.83
2022-12-11T02:48:11.793Z,19.17
2022-12-11T02:50:44.330Z,18.92
2022-12-11T02:53:13.410Z,19.25
2022-12-11T02:55:44.631Z,23.33
2022-12-11T02:58:19.792Z,19.45
2022-12-11T03:00:46.865Z,20.85
2022-12-11T03:03:14.108Z,19.45
2022-12-11T03:05:41.999Z,19.40
2022-12-11T03:08:08.626Z,18.08
2022-12-11T03:10:35.260Z,19.63
2022-12-11T03:13:02.807Z,20.38
2022-12-11T03:15:41.576Z,19.20
2022-12-11T03:18:26.719Z,19.13
2022-12-11T03:21:05.193Z,19.05
2022-12-11T03:23:48.924Z,18.95
2022-12-11T03:26:18.580Z,19.92
2022-12-11T03:28:58.496Z,19.55
2022-12-11T03:31:42.482Z,17.83
2022-12-11T03:34:16.407Z,17.60
2022-12-11T03:36:45.511Z,19.95
2022-12-11T03:39:24.149Z,20.83
2022-12-11T03:41:52.806Z,19.42
2022-12-11T03:44:21.385Z,21.45
2022-12-11T03:46:50.457Z,20.85
2022-12-11T03:49:22.919Z,20.30
2022-12-11T03:51:52.269Z,22.02
2022-12-11T03:54:19.458Z,18.30
2022-12-11T03:56:48.611Z,17.02
2022-12-11T03:59:15.209Z,18.48
2022-12-11T04:01:42.310Z,19.50
2022-12-11T04:04:09.053Z,18.38
2022-12-11T04:06:35.909Z,19.77
2022-12-11T04:09:02.787Z,18.70
2022-12-11T04:11:35.153Z,20.60
2022-12-11T04:14:21.859Z,18.15
2022-12-11T04:16:48.458Z,18.25
2022-12-11T04:19:34.037Z,18.73
2022-12-11T04:22:19.409Z,17.52
2022-12-11T04:24:49.035Z,21.08
2022-12-11T04:27:36.153Z,19.75
2022-12-11T04:30:05.716Z,17.60
2022-12-11T04:32:32.248Z,20.63
2022-12-11T04:34:58.887Z,19.38
2022-12-11T04:37:26.837Z,17.65
2022-12-11T04:39:53.455Z,17.67
2022-12-11T04:42:20.171Z,17.33
2022-12-11T04:44:46.808Z,19.92
2022-12-11T04:47:15.036Z,19.92
2022-12-11T04:49:41.686Z,19.75
2022-12-11T04:52:08.305Z,17.50
2022-12-11T04:54:34.947Z,18.95
2022-12-11T04:57:01.536Z,19.23
2022-12-11T04:59:28.484Z,17.95
2022-12-11T05:01:55.032Z,19.05
2022-12-11T05:04:21.617Z,21.35
2022-12-11T05:06:50.406Z,22.50
2022-12-11T05:09:17.290Z,22.05
2022-12-11T05:11:43.827Z,21.10
2022-12-11T05:14:10.633Z,18.58
2022-12-11T05:16:37.233Z,22.33
2022-12-11T05:19:03.747Z,20.25
2022-12-11T05:21:34.839Z,19.77
2022-12-11T05:26:28.264Z,19.05
2022-12-11T05:28:55.447Z,24.20
2022-12-11T05:31:26.966Z,19.85
2022-12-11T05:33:54.122Z,20.58
2022-12-11T05:36:29.957Z,18.50
2022-12-11T05:38:58.215Z,16.90
2022-12-11T05:41:27.055Z,17.92
2022-12-11T05:43:53.903Z,18.65
2022-12-11T05:46:25.951Z,17.95
2022-12-11T05:48:55.548Z,18.13
2022-12-11T05:51:22.799Z,19.88
2022-12-11T05:53:52.134Z,20.17
2022-12-11T05:56:27.538Z,16.85
2022-12-11T05:58:55.608Z,25.55
2022-12-11T06:01:42.790Z,26.25
2022-12-11T06:04:11.672Z,28.27
2022-12-11T06:06:38.659Z,24.10
2022-12-11T06:09:06.117Z,25.55
2022-12-11T06:11:33.978Z,27.63
2022-12-11T06:14:02.388Z,24.23
2022-12-11T06:16:29.126Z,24.60
2022-12-11T06:18:58.358Z,23.83
2022-12-11T06:21:29.415Z,20.85
2022-12-11T06:23:58.346Z,21.05
2022-12-11T06:26:25.416Z,21.33
2022-12-11T06:28:52.009Z,22.05
2022-12-11T06:31:19.576Z,20.85
2022-12-11T06:33:46.634Z,22.98
2022-12-11T06:36:16.616Z,21.77
2022-12-11T06:38:44.430Z,24.38
2022-12-11T06:41:11.264Z,23.35
2022-12-11T06:43:40.107Z,21.77
2022-12-11T06:46:18.445Z,21.50
2022-12-11T06:48:45.699Z,22.05
2022-12-11T06:51:23.000Z,25.15
2022-12-11T06:53:54.749Z,22.95
2022-12-11T06:56:22.500Z,23.52
2022-12-11T06:58:49.312Z,23.45
2022-12-11T07:01:18.947Z,23.85
2022-12-11T07:03:45.924Z,22.42
2022-12-11T07:06:13.937Z,25.70
2022-12-11T07:08:40.886Z,21.75
2022-12-11T07:11:09.731Z,22.75
2022-12-11T07:13:36.590Z,20.15
2022-12-11T07:16:05.629Z,24.75
2022-12-11T07:18:32.682Z,20.33
2022-12-11T07:21:02.315Z,18.92
2022-12-11T07:23:29.993Z,16.98
2022-12-11T07:25:57.514Z,21.98
2022-12-11T07:28:24.352Z,19.77
2022-12-11T07:30:51.012Z,17.92
2022-12-11T07:33:18.164Z,22.00
2022-12-11T07:35:44.860Z,22.40
2022-12-11T07:38:11.612Z,24.05
2022-12-11T07:40:38.176Z,23.50
2022-12-11T07:43:04.736Z,27.15
2022-12-11T07:45:31.744Z,28.92
2022-12-11T07:48:00.446Z,27.75
2022-12-11T07:50:28.433Z,24.50
2022-12-11T07:52:55.171Z,25.52
2022-12-11T07:55:21.733Z,21.23
2022-12-11T07:57:48.370Z,43.78
2022-12-11T08:00:15.096Z,38.45
2022-12-11T08:02:44.539Z,31.95
2022-12-11T08:05:14.007Z,38.30
2022-12-11T08:07:40.690Z,27.23
2022-12-11T08:10:07.567Z,31.30
2022-12-11T08:12:35.378Z,33.45
2022-12-11T08:15:02.218Z,26.55
2022-12-11T08:17:31.799Z,24.20
2022-12-11T08:20:00.544Z,21.70
2022-12-11T08:22:28.261Z,20.02
2022-12-11T08:24:54.852Z,18.85
2022-12-11T08:27:21.471Z,22.40
2022-12-11T08:29:48.050Z,23.13
2022-12-11T08:32:16.721Z,24.70
2022-12-11T08:34:43.682Z,24.98
2022-12-11T08:37:11.248Z,24.27
2022-12-11T08:39:38.957Z,25.85
2022-12-11T08:42:06.942Z,25.83
2022-12-11T08:44:33.489Z,27.60
2022-12-11T08:47:00.041Z,26.95
2022-12-11T08:49:29.919Z,23.42
2022-12-11T08:52:00.770Z,25.40
2022-12-11T08:54:27.280Z,25.20
2022-12-11T08:56:57.991Z,24.23
2022-12-11T08:59:28.303Z,24.90
2022-12-11T09:01:55.514Z,26.90
2022-12-11T09:04:22.706Z,22.48
2022-12-11T09:06:49.524Z,19.88
2022-12-11T09:09:16.036Z,21.30
2022-12-11T09:11:42.755Z,20.38
2022-12-11T09:14:12.193Z,20.85
2022-12-11T09:16:42.852Z,20.55
2022-12-11T09:19:19.107Z,21.05
2022-12-11T09:21:45.956Z,19.13
2022-12-11T09:24:16.947Z,17.90
2022-12-11T09:26:43.623Z,16.40
2022-12-11T09:29:11.458Z,18.30
2022-12-11T09:31:38.164Z,15.25
2022-12-11T09:34:07.417Z,15.15
2022-12-11T09:36:34.311Z,15.52
2022-12-11T09:39:06.034Z,13.15
2022-12-11T09:41:38.454Z,14.38
2022-12-11T09:44:11.182Z,11.68
2022-12-11T09:46:39.567Z,14.02
2022-12-11T09:49:18.474Z,11.10
2022-12-11T09:51:51.928Z,14.15
2022-12-11T09:54:19.108Z,12.18
2022-12-11T09:56:54.976Z,12.65
2022-12-11T09:59:29.594Z,15.25
2022-12-11T10:02:22.517Z,14.70
2022-12-11T10:05:00.859Z,13.77
2022-12-11T10:07:43.453Z,18.00
2022-12-11T10:13:03.044Z,14.45
2022-12-11T10:15:48.318Z,15.25
2022-12-11T10:18:21.262Z,15.82
2022-12-11T10:20:50.302Z,15.48
2022-12-11T10:23:22.193Z,14.55
2022-12-11T10:25:56.107Z,16.67
2022-12-11T10:28:22.966Z,16.60
2022-12-11T10:31:15.825Z,13.50
2022-12-11T10:34:00.446Z,16.25
2022-12-11T10:36:30.735Z,12.27
2022-12-11T10:38:57.963Z,16.05
2022-12-11T10:41:36.011Z,20.20
2022-12-11T10:44:25.660Z,22.95
2022-12-11T10:47:12.171Z,38.03
2022-12-11T10:49:43.133Z,31.08
2022-12-11T10:52:13.733Z,23.42
2022-12-11T10:54:43.591Z,24.80
2022-12-11T10:57:14.227Z,17.00
2022-12-11T10:59:45.696Z,18.35
2022-12-11T11:04:45.559Z,16.55
2022-12-11T11:07:13.516Z,19.52
2022-12-11T11:09:40.876Z,14.38
2022-12-11T11:12:24.595Z,12.00
2022-12-11T11:15:06.872Z,14.70
2022-12-11T11:17:49.803Z,26.98
2022-12-11T11:20:25.968Z,14.27
2022-12-11T11:22:56.094Z,11.07
2022-12-11T11:25:28.812Z,12.07
2022-12-11T11:27:55.338Z,12.02
2022-12-11T11:30:31.111Z,11.63
2022-12-11T11:33:02.348Z,15.88
2022-12-11T11:35:31.153Z,12.85
2022-12-11T11:38:20.302Z,18.85
2022-12-11T11:41:05.674Z,9.30
2022-12-11T11:43:43.085Z,10.18
2022-12-11T11:46:22.003Z,9.15
2022-12-11T11:48:48.604Z,10.88
2022-12-11T11:51:31.367Z,11.38
2022-12-11T11:54:01.536Z,10.98
2022-12-11T11:56:36.541Z,10.60
2022-12-11T11:59:18.328Z,10.55
2022-12-11T12:01:45.198Z,11.15
2022-12-11T12:04:12.155Z,7.72
2022-12-11T12:06:56.474Z,11.10
2022-12-11T12:09:42.418Z,11.98
2022-12-11T12:12:09.004Z,10.35
2022-12-11T12:15:05.748Z,8.98
2022-12-11T12:18:16.946Z,11.10
2022-12-11T12:20:53.807Z,11.48
2022-12-11T12:24:06.668Z,9.95
2022-12-11T12:26:36.600Z,13.40
2022-12-11T12:29:11.950Z,9.48
2022-12-11T12:31:53.620Z,12.88
2022-12-11T12:34:39.385Z,8.73
2022-12-11T12:37:23.213Z,10.95
2022-12-11T12:40:28.913Z,11.77
2022-12-11T12:42:55.433Z,10.20
2022-12-11T12:45:28.831Z,9.75
2022-12-11T12:47:55.414Z,9.90
2022-12-11T12:50:26.276Z,12.00
2022-12-11T12:52:54.239Z,12.10
2022-12-11T12:55:27.121Z,12.65
2022-12-11T12:57:57.695Z,33.67
2022-12-11T13:00:38.561Z,17.70
2022-12-11T13:03:19.214Z,13.18
2022-12-11T13:06:07.686Z,13.57
2022-12-11T13:08:38.191Z,12.05
2022-12-11T13:11:11.957Z,11.13
2022-12-11T13:14:06.264Z,12.52
2022-12-11T13:16:39.666Z,12.07
2022-12-11T13:19:18.468Z,12.55
2022-12-11T13:22:00.039Z,11.73
2022-12-11T13:24:28.682Z,9.85
2022-12-11T13:26:55.905Z,11.80
2022-12-11T13:29:32.658Z,10.43
2022-12-11T13:32:02.118Z,11.05
2022-12-11T13:34:33.691Z,9.35
2022-12-11T13:37:02.471Z,10.65
2022-12-11T13:39:39.326Z,10.07
2022-12-11T13:42:20.642Z,7.20
2022-12-11T13:44:50.853Z,9.40
2022-12-11T13:47:19.722Z,9.88
2022-12-11T13:49:49.960Z,11.25
2022-12-11T13:52:28.669Z,10.70
2022-12-11T13:54:56.317Z,11.40
2022-12-11T13:57:25.888Z,10.18
2022-12-11T13:59:54.677Z,11.07
2022-12-11T14:02:29.733Z,11.10
2022-12-11T14:05:02.521Z,10.80
2022-12-11T14:07:36.413Z,10.07
2022-12-11T14:10:28.356Z,10.00
2022-12-11T14:13:02.600Z,10.32
2022-12-11T14:15:31.742Z,12.45
2022-12-11T14:18:00.115Z,11.52
2022-12-11T14:20:31.117Z,10.45
2022-12-11T14:23:19.723Z,10.18
2022-12-11T14:26:23.116Z,10.77
2022-12-11T14:28:50.011Z,9.52
2022-12-11T14:31:23.445Z,10.93
2022-12-11T14:33:55.753Z,14.40
2022-12-11T14:36:23.564Z,10.75
2022-12-11T14:38:56.480Z,13.20
2022-12-11T14:41:35.132Z,11.10
2022-12-11T14:44:04.941Z,14.18
2022-12-11T14:46:43.851Z,12.15
2022-12-11T14:49:35.256Z,12.13
2022-12-11T14:52:04.186Z,12.10
2022-12-11T14:54:39.032Z,13.93
2022-12-11T14:57:07.429Z,14.57
2022-12-11T14:59:44.429Z,12.93
2022-12-11T15:02:29.791Z,9.18
2022-12-11T15:05:03.152Z,8.73
2022-12-11T15:07:29.958Z,11.52
2022-12-11T15:09:56.612Z,9.85
2022-12-11T15:12:24.057Z,11.93
2022-12-11T15:15:15.066Z,15.68
2022-12-11T15:17:41.871Z,26.42
2022-12-11T15:20:20.101Z,14.27
2022-12-11T15:22:46.770Z,14.73
2022-12-11T15:25:25.190Z,24.20
2022-12-11T15:28:00.070Z,14.73
2022-12-11T15:30:32.617Z,14.85
2022-12-11T15:33:04.373Z,13.85
2022-12-11T15:35:31.052Z,19.73
2022-12-11T15:37:59.465Z,21.00
2022-12-11T15:40:27.940Z,18.00
2022-12-11T15:42:57.660Z,14.20
2022-12-11T15:45:28.356Z,14.20
2022-12-11T15:47:55.583Z,17.85
2022-12-11T15:50:28.294Z,18.67
2022-12-11T15:52:56.744Z,13.95
2022-12-11T15:55:34.158Z,15.25
2022-12-11T15:58:07.763Z,14.52
2022-12-11T16:00:34.308Z,13.88
2022-12-11T16:03:01.982Z,18.30
2022-12-11T16:05:29.771Z,18.90
2022-12-11T16:07:59.542Z,19.50
2022-12-11T16:10:27.109Z,17.38
2022-12-11T16:12:59.190Z,17.15
2022-12-11T16:15:27.027Z,14.88
2022-12-11T16:18:02.954Z,25.75
2022-12-11T16:20:31.172Z,20.27
2022-12-11T16:22:59.179Z,19.52
2022-12-11T16:25:29.660Z,16.33
2022-12-11T16:28:00.540Z,15.13
2022-12-11T16:30:28.935Z,16.38
2022-12-11T16:33:00.288Z,17.08
2022-12-11T16:35:28.543Z,15.50
2022-12-11T16:37:59.269Z,14.50
2022-12-11T16:40:25.815Z,12.93
2022-12-11T16:42:52.595Z,11.98
2022-12-11T16:45:22.465Z,17.38
2022-12-11T16:47:49.268Z,17.20
2022-12-11T16:50:16.730Z,18.05
2022-12-11T16:52:44.402Z,16.83
2022-12-11T16:55:15.562Z,15.40
2022-12-11T16:57:42.616Z,15.07
2022-12-11T17:00:12.706Z,11.23
2022-12-11T17:02:39.772Z,12.70
2022-12-11T17:05:08.855Z,13.82
2022-12-11T17:07:37.373Z,12.10
2022-12-11T17:10:07.522Z,17.50
2022-12-11T17:12:34.343Z,13.38
2022-12-11T17:15:00.933Z,12.88
2022-12-11T17:17:28.061Z,12.07
2022-12-11T17:19:55.737Z,11.48
2022-12-11T17:22:22.658Z,10.40
2022-12-11T17:24:49.631Z,10.73
2022-12-11T17:27:16.244Z,13.77
2022-12-11T17:29:43.068Z,14.40
2022-12-11T17:32:09.610Z,12.93
2022-12-11T17:34:38.541Z,10.98
2022-12-11T17:37:06.144Z,12.20
2022-12-11T17:39:33.408Z,9.45
2022-12-11T17:42:00.352Z,12.23
2022-12-11T17:44:31.176Z,13.27
2022-12-11T17:46:58.853Z,12.95
2022-12-11T17:49:25.840Z,12.90
2022-12-11T17:51:55.607Z,10.57
2022-12-11T17:54:23.589Z,12.80
2022-12-11T17:56:53.304Z,13.07
2022-12-11T17:59:19.988Z,13.30
2022-12-11T18:01:46.753Z,15.27
2022-12-11T18:04:13.393Z,14.65
2022-12-11T18:06:40.139Z,12.88
2022-12-11T18:09:07.090Z,13.05
2022-12-11T18:11:34.689Z,11.43
2022-12-11T18:14:01.793Z,10.30
2022-12-11T18:16:37.898Z,11.05
2022-12-11T18:19:06.018Z,11.32
2022-12-11T18:21:35.598Z,12.70
2022-12-11T18:24:02.917Z,12.57
2022-12-11T18:26:29.964Z,16.60
2022-12-11T18:29:00.489Z,14.32
2022-12-11T18:31:29.215Z,14.40
2022-12-11T18:33:56.631Z,15.52
2022-12-11T18:36:23.494Z,15.18
2022-12-11T18:38:52.919Z,14.27
2022-12-11T18:41:20.380Z,14.68
2022-12-11T18:43:47.245Z,13.63
2022-12-11T18:46:16.675Z,13.23
2022-12-11T18:48:44.624Z,14.50
2022-12-11T18:51:17.591Z,16.52
2022-12-11T18:53:44.848Z,18.98
2022-12-11T18:56:15.197Z,11.45
2022-12-11T18:58:42.399Z,17.48
2022-12-11T19:01:13.852Z,17.27
2022-12-11T19:03:44.189Z,14.50
2022-12-11T19:06:13.936Z,22.05
2022-12-11T19:08:41.031Z,12.80
2022-12-11T19:11:07.895Z,15.35
2022-12-11T19:13:35.497Z,11.90
2022-12-11T19:16:02.670Z,19.10
2022-12-11T19:18:31.978Z,15.18
2022-12-11T19:21:06.722Z,16.50
2022-12-11T19:23:36.412Z,16.17
2022-12-11T19:26:03.608Z,14.70
2022-12-11T19:28:30.496Z,13.38
2022-12-11T19:30:57.178Z,12.75
2022-12-11T19:33:24.057Z,11.27
2022-12-11T19:36:01.026Z,11.10
2022-12-11T19:38:28.125Z,13.15
2022-12-11T19:40:55.325Z,10.40
2022-12-11T19:43:21.964Z,12.23
2022-12-11T19:45:48.790Z,13.13
2022-12-11T19:48:15.458Z,13.32
2022-12-11T19:50:41.999Z,12.40
2022-12-11T19:53:08.572Z,14.98
2022-12-11T19:55:38.142Z,15.13
2022-12-11T19:58:07.367Z,24.83
2022-12-11T20:00:37.603Z,28.85
2022-12-11T20:03:04.184Z,17.05
2022-12-11T20:05:30.728Z,17.15
2022-12-11T20:08:14.298Z,15.68
2022-12-11T20:10:44.840Z,13.18
2022-12-11T20:13:11.458Z,14.52
2022-12-11T20:15:38.941Z,16.30
2022-12-11T20:18:05.604Z,15.02
2022-12-11T20:20:32.394Z,17.98
2022-12-11T20:22:59.374Z,15.77
2022-12-11T20:25:27.348Z,15.15
2022-12-11T20:27:55.666Z,14.32
2022-12-11T20:30:23.718Z,15.77
2022-12-11T20:32:51.585Z,15.60
2022-12-11T20:35:18.659Z,12.05
2022-12-11T20:37:45.422Z,14.55
2022-12-11T20:40:13.078Z,13.45
2022-12-11T20:42:40.476Z,13.77
2022-12-11T20:45:07.804Z,14.02
2022-12-11T20:47:34.771Z,17.73
2022-12-11T20:50:01.718Z,15.90
2022-12-11T20:52:28.309Z,14.98
2022-12-11T20:54:54.874Z,30.55
2022-12-11T20:57:21.637Z,13.73
2022-12-11T20:59:49.530Z,14.60
2022-12-11T21:02:16.459Z,15.32
2022-12-11T21:04:43.167Z,15.93
2022-12-11T21:07:10.616Z,11.38
2022-12-11T21:09:38.338Z,16.40
2022-12-11T21:12:06.200Z,14.75
2022-12-11T21:14:32.969Z,17.40
2022-12-11T21:16:59.788Z,21.15
2022-12-11T21:19:26.815Z,12.45
2022-12-11T21:21:55.156Z,16.05
2022-12-11T21:24:27.518Z,15.43
2022-12-11T21:26:56.163Z,16.20
2022-12-11T21:29:24.681Z,13.60
2022-12-11T21:31:51.749Z,15.27
2022-12-11T21:34:25.040Z,15.65
2022-12-11T21:36:56.429Z,15.70
2022-12-11T21:39:24.881Z,14.32
2022-12-11T21:41:52.756Z,16.33
2022-12-11T21:47:06.040Z,12.73
2022-12-11T21:49:32.672Z,12.52
2022-12-11T21:51:59.774Z,16.35
2022-12-11T21:54:26.959Z,11.98
2022-12-11T21:56:54.580Z,16.95
2022-12-11T21:59:21.254Z,16.05
2022-12-11T22:01:47.817Z,15.98
2022-12-11T22:04:15.532Z,15.40
2022-12-11T22:06:43.435Z,16.17
2022-12-11T22:09:12.389Z,19.40
2022-12-11T22:11:41.219Z,17.58
2022-12-11T22:14:18.879Z,14.65
2022-12-11T22:16:45.877Z,17.05
2022-12-11T22:19:12.891Z,17.20
2022-12-11T22:21:39.989Z,12.63
2022-12-11T22:24:07.075Z,17.42
2022-12-11T22:26:33.633Z,14.30
2022-12-11T22:29:00.198Z,16.92
2022-12-11T22:31:30.136Z,17.33
2022-12-11T22:33:56.779Z,16.23
2022-12-11T22:36:26.023Z,16.15
2022-12-11T22:38:53.401Z,14.55
2022-12-11T22:41:29.434Z,15.52
2022-12-11T22:43:57.130Z,16.95
2022-12-11T22:46:27.258Z,13.68
2022-12-11T22:48:54.898Z,16.92
2022-12-11T22:51:23.450Z,16.85
2022-12-11T22:53:50.338Z,13.07
2022-12-11T22:56:17.276Z,16.65
2022-12-11T22:58:43.833Z,15.55
2022-12-11T23:01:17.174Z,17.17
2022-12-11T23:03:43.942Z,15.55
2022-12-11T23:06:13.388Z,15.13
2022-12-11T23:08:40.680Z,16.08
2022-12-11T23:11:20.096Z,13.75
2022-12-11T23:13:46.785Z,15.30
2022-12-11T23:16:14.060Z,14.52
2022-12-11T23:18:40.921Z,13.55
2022-12-11T23:21:08.942Z,12.07
2022-12-11T23:23:35.970Z,15.85
2022-12-11T23:26:04.335Z,14.75
2022-12-11T23:28:31.092Z,16.02
2022-12-11T23:30:57.665Z,13.45
2022-12-11T23:33:25.715Z,14.32
2022-12-11T23:35:52.325Z,14.00
2022-12-11T23:38:20.060Z,15.23
2022-12-11T23:40:46.964Z,12.90
2022-12-11T23:43:13.563Z,13.52
2022-12-11T23:45:43.562Z,14.98
2022-12-11T23:48:10.438Z,14.40
2022-12-11T23:50:37.117Z,14.50
2022-12-11T23:53:03.714Z,13.77
2022-12-11T23:55:30.307Z,14.75
2022-12-11T23:57:57.054Z,14.52
